Flight Track Log - Related Links

Times and Time Zones

All times are in EDT time to prevent confusion due to time zone crossing. See the FFT920 flight status page for this flight to view local times or setup timezone preferences in your user account.

Time Position Orientation Groundspeed Altitude Reporting Facility
EDT Latitude Longitude Course Direction KTS MPH feet Rate Location/Type
Fri 08:44:15 AM 35.8630 -78.8150 223° Southwest 153 176 1,700  Level FlightAware ADS-B
Fri 08:44:44 AM 35.8520 -78.8270 221° Southwest 169 194 2,100 1,000 Climbing FlightAware ADS-B
Fri 08:45:09 AM 35.8390 -78.8430 225° Southwest 200 230 2,600 2,618 Climbing FlightAware ADS-B
Fri 08:45:39 AM 35.8120 -78.8790 227° Southwest 218 251 4,500 3,692 Climbing FlightAware ADS-B
Fri 08:45:48 AM 35.8090 -78.8910 253° West 220 253 5,000 2,945 Climbing FlightAware ADS-B
Fri 08:46:34 AM 35.8440 -78.9260 321° Northwest 255 293 7,200 2,786 Climbing FlightAware ADS-B
Fri 08:46:44 AM 35.8580 -78.9210 16° North 272 313 7,600 2,143 Climbing FlightAware ADS-B
Fri 08:47:02 AM 35.8750 -78.9110 25° Northeast 286 329 8,200 2,714 Climbing FlightAware ADS-B
Fri 08:47:26 AM 35.9080 -78.8920 25° Northeast 293 337 9,500 2,438 Climbing FlightAware ADS-B
Fri 08:48:06 AM 35.9550 -78.8630 27° Northeast 322 371 10,800 1,841 Climbing FlightAware ADS-B
Fri 08:48:54 AM 36.0180 -78.8260 25° Northeast 355 409 12,200 2,414 Climbing FlightAware ADS-B
Fri 08:49:33 AM 36.0910 -78.7840 25° Northeast 363 418 14,300 2,734 Climbing FlightAware ADS-B
Fri 08:50:13 AM 36.1520 -78.7480 25° Northeast 376 433 15,800 2,286 Climbing FlightAware ADS-B
Fri 08:50:57 AM 36.2230 -78.7060 26° Northeast 384 442 17,500 2,302 Climbing FlightAware ADS-B
Fri 08:51:39 AM 36.2910 -78.6650 26° Northeast 393 452 19,100 1,979 Climbing FlightAware ADS-B
Fri 08:52:31 AM 36.3650 -78.6220 25° Northeast 402 463 20,600 2,000 Climbing FlightAware ADS-B
Fri 08:53:27 AM 36.4740 -78.5700 21° North 411 473 22,700 2,063 Climbing FlightAware ADS-B
Fri 08:54:07 AM 36.5510 -78.5420 16° North 418 481 23,900 1,800 Climbing FlightAware ADS-B
Fri 08:54:50 AM 36.6270 -78.5150 16° North 25,100 1,800 Climbing FlightAware ADS-B
Fri 08:56:47 AM 36.8150 -78.4160 23° Northeast 419 482 28,700 1,403 Climbing FlightAware ADS-B
Fri 08:57:24 AM 36.8660 -78.3750 33° Northeast 419 482 28,700  Level FlightAware ADS-B
Fri 08:58:13 AM 36.9340 -78.3200 33° Northeast 419 482 28,700 1,551 Level FlightAware ADS-B
Fri 08:58:53 AM 37.0360 -78.2370 33° Northeast 403 464 31,000 1,816 Climbing FlightAware ADS-B
Fri 08:59:29 AM 37.0900 -78.1920 34° Northeast 404 465 31,000  Level FlightAware ADS-B
Fri 09:00:13 AM 37.1580 -78.1370 33° Northeast 404 465 31,000  Level FlightAware ADS-B
Fri 09:00:49 AM 37.2150 -78.0900 33° Northeast 405 466 31,000  Level FlightAware ADS-B
Fri 09:01:48 AM 37.3090 -78.0130 33° Northeast 405 466 31,000  Level FlightAware ADS-B
Fri 09:03:01 AM 37.4040 -77.9340 33° Northeast 405 466 31,000  Level FlightAware ADS-B
Fri 09:03:39 AM 37.4630 -77.8830 34° Northeast 405 466 31,000  Level FlightAware ADS-B
Fri 09:04:32 AM 37.5650 -77.7960 34° Northeast 405 466 31,000  Level FlightAware ADS-B
Fri 09:05:14 AM 37.6290 -77.7380 36° Northeast 406 467 31,000  Level FlightAware ADS-B
Fri 09:05:52 AM 37.6870 -77.6850 36° Northeast 406 467 31,000  Level FlightAware ADS-B
Fri 09:06:30 AM 37.7440 -77.6330 36° Northeast 406 467 31,000  Level FlightAware ADS-B
Fri 09:07:09 AM 37.7830 -77.5980 35° Northeast 406 467 31,000  Level FlightAware ADS-B
Fri 09:10:39 AM 38.1130 -77.2960 36° Northeast 407 468 31,000  Level FlightAware ADS-B
Fri 09:11:30 AM 38.1810 -77.2330 36° Northeast 400 460 31,000  Level FlightAware ADS-B
Fri 09:12:14 AM 38.2690 -77.1530 36° Northeast 407 468 31,000  Level FlightAware ADS-B
Fri 09:12:54 AM 38.3300 -77.0960 36° Northeast 407 468 31,000 -71 Level FlightAware ADS-B
Fri 09:13:39 AM 38.3980 -77.0320 36° Northeast 407 468 30,900 -918 Descending FlightAware ADS-B
Fri 09:14:19 AM 38.4570 -76.9780 36° Northeast 404 465 29,700 -1,650 Descending FlightAware ADS-B
Fri 09:14:59 AM 38.5000 -76.9370 37° Northeast 407 468 28,700 -1,906 Descending FlightAware ADS-B
Fri 09:15:44 AM 38.5700 -76.8730 36° Northeast 423 487 27,000 -2,591 Descending FlightAware ADS-B
Fri 09:16:27 AM 38.6580 -76.7900 36° Northeast 417 480 24,900 -2,451 Descending FlightAware ADS-B
Fri 09:16:55 AM 38.6970 -76.7450 42° Northeast 408 470 24,100 -1,676 Descending FlightAware ADS-B
Fri 09:17:35 AM 38.7230 -76.6620 68° East 398 458 23,000 -1,714 Descending FlightAware ADS-B
Fri 09:18:19 AM 38.7450 -76.5580 75° East 389 448 21,700 -1,714 Descending FlightAware ADS-B
Fri 09:18:59 AM 38.7630 -76.4690 75° East 383 441 20,600 -1,643 Descending FlightAware ADS-B
Fri 09:19:43 AM 38.7830 -76.3750 75° East 376 433 19,400 -1,650 Descending FlightAware ADS-B
Fri 09:20:19 AM 38.7990 -76.2990 75° East 372 428 18,400 -1,315 Descending FlightAware ADS-B
Fri 09:20:56 AM 38.8090 -76.2500 75° East 368 423 17,800 -1,333 Descending FlightAware ADS-B
Fri 09:21:40 AM 38.8280 -76.1580 75° East 360 414 16,600 -750 Descending FlightAware ADS-B
Fri 09:24:40 AM 38.9240 -75.8080 70° East 351 404 15,000 -490 Descending FlightAware ADS-B
Fri 09:24:56 AM 38.9460 -75.7880 35° Northeast 350 403 15,000  Level FlightAware ADS-B
Fri 09:25:31 AM 39.0120 -75.7440 27° Northeast 347 399 15,000 -154 Level FlightAware ADS-B
Fri 09:26:14 AM 39.0770 -75.7220 15° North 348 400 14,800 -867 Descending FlightAware ADS-B
Fri 09:26:54 AM 39.1410 -75.7010 14° North 337 388 13,800 -1,553 Descending FlightAware ADS-B
Fri 09:27:39 AM 39.2100 -75.6780 14° North 332 382 12,600 -1,271 Descending FlightAware ADS-B
Fri 09:28:19 AM 39.2710 -75.6580 14° North 318 366 12,000 -525 Descending FlightAware ADS-B
Fri 09:28:59 AM 39.3200 -75.6220 30° Northeast 310 357 11,900  Descending FlightAware ADS-B
Fri 09:29:43 AM 39.3690 -75.5800 34° Northeast 313 360 12,000  Climbing FlightAware ADS-B
Fri 09:30:23 AM 39.4260 -75.5320 33° Northeast 345 397 11,900  Descending FlightAware ADS-B
Fri 09:31:03 AM 39.4790 -75.4880 33° Northeast 346 398 12,000 -69 Climbing FlightAware ADS-B
Fri 09:31:50 AM 39.5430 -75.4350 33° Northeast 346 398 11,800 -565 Descending FlightAware ADS-B
Fri 09:32:28 AM 39.5940 -75.3920 33° Northeast 342 394 11,200 -884 Descending FlightAware ADS-B
Fri 09:33:25 AM 39.6590 -75.3380 33° Northeast 342 394 10,400 -699 Descending FlightAware ADS-B
Fri 09:34:11 AM 39.7150 -75.2910 33° Northeast 338 389 10,000 -387 Descending FlightAware ADS-B
Fri 09:34:27 AM 39.7360 -75.2730 33° Northeast 339 390 10,000 -125 Level FlightAware ADS-B
Fri 09:34:59 AM 39.7750 -75.2330 38° Northeast 337 388 9,900 -128 Descending FlightAware ADS-B
Fri 09:35:14 AM 39.8050 -75.2000 40° Northeast 311 358 9,900 -837 Level FlightAware ADS-B
Fri 09:35:42 AM 39.8370 -75.1640 41° Northeast 302 348 9,300 -1,500 Descending FlightAware ADS-B
Fri 09:36:10 AM 39.8660 -75.1310 41° Northeast 299 344 8,500 -1,920 Descending FlightAware ADS-B
Fri 09:36:32 AM 39.8900 -75.1050 40° Northeast 299 344 7,700 -2,000 Descending FlightAware ADS-B
Fri 09:36:52 AM 39.9100 -75.0820 41° Northeast 301 346 7,100 -1,636 Descending FlightAware ADS-B
Fri 09:37:16 AM 39.9340 -75.0540 42° Northeast 295 339 6,500 -1,200 Descending FlightAware ADS-B
Fri 09:37:42 AM 39.9540 -75.0320 40° Northeast 292 336 6,100 -508 Descending FlightAware ADS-B
Fri 09:38:15 AM 39.9820 -75.0000 41° Northeast 296 341 6,000 -107 Descending FlightAware ADS-B
Fri 09:38:38 AM 40.0190 -74.9590 40° Northeast 294 338 6,000  Level FlightAware ADS-B
Fri 09:38:58 AM 40.0400 -74.9350 41° Northeast 293 337 6,000 -136 Level FlightAware ADS-B
Fri 09:39:22 AM 40.0640 -74.9080 41° Northeast 292 336 5,900 -750 Descending FlightAware ADS-B
Fri 09:39:46 AM 40.0890 -74.8800 41° Northeast 290 334 5,400 -1,500 Descending FlightAware ADS-B
Fri 09:40:10 AM 40.1130 -74.8520 42° Northeast 290 334 4,700 -1,636 Descending FlightAware ADS-B
Fri 09:40:30 AM 40.1330 -74.8290 41° Northeast 288 331 4,200 -1,636 Descending FlightAware ADS-B
Fri 09:40:54 AM 40.1570 -74.8020 41° Northeast 285 328 3,500 -1,440 Descending FlightAware ADS-B
Fri 09:41:20 AM 40.1830 -74.7720 41° Northeast 278 320 3,000 -720 Descending FlightAware ADS-B
Fri 09:41:44 AM 40.2050 -74.7470 41° Northeast 252 290 2,900 -245 Descending FlightAware ADS-B
Fri 09:42:09 AM 40.2230 -74.7220 47° Northeast 229 264 2,800 -333 Descending FlightAware ADS-B
Fri 09:42:38 AM 40.2360 -74.7040 47° Northeast 216 249 2,600 -429 Descending FlightAware ADS-B
Fri 09:42:51 AM 40.2430 -74.6930 50° Northeast 200 230 2,500 -462 Descending FlightAware ADS-B

Login

Don't have an account? Register now (free) for customized features, flight alerts, and more!